Dory — WDJ3671 — position and weather

sailwx.info

Track history (hours):
 
Tides and Currents Weather Stations Pressure Air Temp Water Temp Dewpoint Dewpoint Depression Visibility Wind Speed Wind Dir Waves Ship Positions

Dory

Owner: Greater NY Marine Transportation LLC, SYOSSET, NY. More information available from US FCC via Universal Licensing System and Coast Guard Vessel Documentation Center.

Last reported at 2017-Nov-20 00:30 UTC. Time now 2017-Nov-21 17:43 UTC.
Position N 40°40' W 074°01'.

Length 24 m; draft 2.4 m.

Type: Tug. MMSI: 367605380.

Date/timePositionNaut miles runAvg speedWind from/ knotsBaromVisibWave heightAir tempDewpointWater temp
2017-Nov-20 00:30N 40°40' W 074°01'0 0.0
2017-Nov-20 00:01N 40°40' W 074°01'0 0.0
2017-Nov-19 23:27N 40°40' W 074°01'0 0.0
2017-Nov-19 23:00N 40°40' W 074°01'0 0.0
2017-Nov-19 22:30N 40°40' W 074°01'0 0.0
2017-Nov-19 22:00N 40°40' W 074°01'0 0.0
2017-Nov-19 21:30N 40°40' W 074°01'0 0.0
2017-Nov-19 20:51N 40°40' W 074°01'0 0.0
2017-Nov-19 20:30N 40°40' W 074°01'0 0.0
2017-Nov-19 20:00N 40°40' W 074°01'0 0.0
2017-Nov-19 19:31N 40°40' W 074°01'0 0.0
2017-Nov-19 19:00N 40°40' W 074°01'0 0.0
2017-Nov-19 18:30N 40°40' W 074°01'0 0.0
2017-Nov-19 18:00N 40°40' W 074°01'0 0.0
2017-Nov-19 17:30N 40°40' W 074°01'0 0.0
2017-Nov-19 17:00N 40°40' W 074°01'0 0.0
2017-Nov-19 16:30N 40°40' W 074°01'0 0.0
2017-Nov-19 16:00N 40°40' W 074°01'0 0.0
2017-Nov-19 15:27N 40°40' W 074°01'0 0.0
2017-Nov-19 15:00N 40°40' W 074°01'0 0.0
2017-Nov-19 14:30N 40°40' W 074°01'0 0.0
2017-Nov-19 14:00N 40°40' W 074°01'0 0.0
2017-Nov-19 13:30N 40°40' W 074°01'0 0.0
2017-Nov-19 12:57N 40°40' W 074°01'0 0.0
2017-Nov-19 12:30N 40°40' W 074°01'0 0.0
2017-Nov-19 12:00N 40°40' W 074°01'0 0.0
2017-Nov-19 11:30N 40°40' W 074°01'0 0.0
2017-Nov-19 11:00N 40°40' W 074°01'0 0.0
2017-Nov-19 10:24N 40°40' W 074°01'0 0.0
2017-Nov-19 10:00N 40°40' W 074°01'0 0.0
2017-Nov-19 09:30N 40°40' W 074°01'0 0.0
2017-Nov-19 09:00N 40°40' W 074°01'0 0.0
2017-Nov-19 08:30N 40°40' W 074°01'0 0.0
2017-Nov-19 08:00N 40°40' W 074°01'0 0.0
2017-Nov-19 07:30N 40°40' W 074°01'0 0.0
2017-Nov-19 07:00N 40°40' W 074°01'0 0.0
2017-Nov-19 06:31N 40°40' W 074°01'0 0.0
2017-Nov-19 06:00N 40°40' W 074°01'0 0.0
2017-Nov-19 05:30N 40°40' W 074°01'0 0.0
2017-Nov-19 05:00N 40°40' W 074°01'0 0.0
2017-Nov-19 04:30N 40°40' W 074°01'0 0.0
2017-Nov-19 04:00N 40°40' W 074°01'0 0.0
2017-Nov-19 03:30N 40°40' W 074°01'0 0.0
2017-Nov-19 03:00N 40°40' W 074°01'0 0.0
2017-Nov-19 02:30N 40°40' W 074°01'0 0.0
2017-Nov-19 02:00N 40°40' W 074°01'0 0.0
2017-Nov-19 01:30N 40°40' W 074°01'0 0.0
2017-Nov-19 01:00N 40°40' W 074°01'0 0.0
2017-Nov-19 00:30N 40°40' W 074°01'0 0.0
2017-Nov-19 00:00N 40°40' W 074°01'0 0.0
2017-Nov-18 23:27N 40°40' W 074°01'0 0.0
2017-Nov-18 23:00N 40°40' W 074°01'0 0.0
2017-Nov-18 22:30N 40°40' W 074°01'0 0.0
2017-Nov-18 22:00N 40°40' W 074°01'0 0.0
2017-Nov-18 21:30N 40°40' W 074°01'0 0.0
2017-Nov-18 21:00N 40°40' W 074°01'0 0.0
2017-Nov-18 20:30N 40°40' W 074°01'0 0.0
2017-Nov-18 20:00N 40°40' W 074°01'0 0.0
2017-Nov-18 19:30N 40°40' W 074°01'0 0.0
2017-Nov-18 19:00N 40°40' W 074°01'0 0.0
2017-Nov-18 18:30N 40°40' W 074°01'0 0.0
2017-Nov-18 18:00N 40°40' W 074°01'0 0.0
2017-Nov-18 17:30N 40°40' W 074°01'0 0.0
2017-Nov-18 17:00N 40°40' W 074°01'0 0.0
2017-Nov-18 16:30N 40°40' W 074°01'0 0.0
2017-Nov-18 16:00N 40°40' W 074°01'0 0.0
2017-Nov-18 15:30N 40°40' W 074°01'0 0.0
2017-Nov-18 15:00N 40°40' W 074°01'0 0.7
2017-Nov-18 14:30N 40°40' W 074°01'4 7.3
2017-Nov-18 14:00N 40°43' W 073°58'4 7.1
2017-Nov-18 13:29N 40°47' W 073°56'3 6.3
2017-Nov-18 12:56N 40°48' W 073°52'56 8.4
2017-Nov-18 06:14N 41°10' W 072°44'2 8.1
2017-Nov-18 05:59N 41°11' W 072°41'4 8.0
2017-Nov-18 05:30N 41°12' W 072°36'4 7.8
2017-Nov-18 05:00N 41°12' W 072°31'4 7.9
2017-Nov-18 04:30N 41°13' W 072°26'4 8.1
2017-Nov-18 04:00N 41°14' W 072°20'4 8.7
2017-Nov-18 03:30N 41°15' W 072°15'92 6.8
2017-Nov-17 13:57N 42°18' W 070°44'4 9.1
2017-Nov-17 13:30N 42°19' W 070°50'6 8.2
2017-Nov-17 12:50N 42°20' W 070°57'3 6.9
2017-Nov-17 12:22N 42°21' W 071°01'2 3.3
2017-Nov-17 11:44N 42°23' W 071°03'0 1.1
2017-Nov-17 11:29N 42°22' W 071°03'0 0.0
2017-Nov-17 10:59N 42°22' W 071°03'0 0.0
2017-Nov-17 10:29N 42°22' W 071°03'0 0.0
2017-Nov-17 09:59N 42°22' W 071°03'0 0.0
2017-Nov-17 09:26N 42°22' W 071°03'0 0.0
2017-Nov-17 08:59N 42°22' W 071°03'0 0.0
2017-Nov-17 08:29N 42°22' W 071°03'0 0.0
2017-Nov-17 07:59N 42°22' W 071°03'0 0.0
2017-Nov-17 07:29N 42°22' W 071°03'0 0.0
2017-Nov-17 06:59N 42°22' W 071°03'0 0.0
2017-Nov-17 06:17N 42°22' W 071°03'0 0.0
2017-Nov-17 05:59N 42°22' W 071°03'0 0.0
2017-Nov-17 05:29N 42°22' W 071°03'0 0.0
2017-Nov-17 04:50N 42°22' W 071°03'0 0.0
2017-Nov-17 04:29N 42°22' W 071°03'0 0.0
2017-Nov-17 03:53N 42°22' W 071°03'0 0.0
2017-Nov-17 03:29N 42°22' W 071°03'0 0.0
2017-Nov-17 02:59N 42°22' W 071°03'0 0.0
2017-Nov-17 02:29N 42°22' W 071°03'0 0.0
2017-Nov-17 01:56N 42°22' W 071°03'0 0.0
2017-Nov-17 01:29N 42°22' W 071°03'0 0.0
2017-Nov-17 00:59N 42°22' W 071°03'0 0.0
2017-Nov-17 00:29N 42°22' W 071°03'0 0.0
2017-Nov-16 23:59N 42°22' W 071°03'0 0.0
2017-Nov-16 23:29N 42°22' W 071°03'0 0.0
2017-Nov-16 22:59N 42°22' W 071°03'0 0.0
2017-Nov-16 22:26N 42°22' W 071°03'0 0.0
2017-Nov-16 21:59N 42°22' W 071°03'0 0.0
2017-Nov-16 21:29N 42°22' W 071°03'0 0.0
2017-Nov-16 20:50N 42°22' W 071°03'0 0.0
2017-Nov-16 20:29N 42°22' W 071°03'0 0.0
2017-Nov-16 19:59N 42°22' W 071°03'0 0.0
2017-Nov-16 19:29N 42°22' W 071°03'0 0.0
2017-Nov-16 18:56N 42°22' W 071°03'0 0.0
2017-Nov-16 18:20N 42°22' W 071°03'0 0.0
2017-Nov-16 17:50N 42°22' W 071°03'0 0.0
2017-Nov-16 17:29N 42°22' W 071°03'0 0.0
2017-Nov-16 16:59N 42°22' W 071°03'0 0.0
2017-Nov-16 16:29N 42°22' W 071°03'0 0.0
2017-Nov-16 15:59N 42°22' W 071°03'0 0.0
2017-Nov-16 15:26N 42°22' W 071°03'0 0.0
2017-Nov-16 14:59N 42°22' W 071°03'0 0.0
2017-Nov-16 14:29N 42°22' W 071°03'0 0.0
2017-Nov-16 13:56N 42°22' W 071°03'0 0.0
2017-Nov-16 13:29N 42°22' W 071°03'0 0.0
2017-Nov-16 12:59N 42°22' W 071°03'0 0.0
2017-Nov-16 12:28N 42°22' W 071°03'0 0.0
2017-Nov-16 11:58N 42°22' W 071°03'0 0.0
2017-Nov-16 11:28N 42°22' W 071°03'0 0.0
2017-Nov-16 10:58N 42°22' W 071°03'0 0.0
2017-Nov-16 10:22N 42°22' W 071°03'0 0.0
2017-Nov-16 09:58N 42°22' W 071°03'0 0.0
2017-Nov-16 09:22N 42°22' W 071°03'0 0.0
2017-Nov-16 08:58N 42°22' W 071°03'0 0.0
2017-Nov-16 08:28N 42°22' W 071°03'0 0.0
2017-Nov-16 07:55N 42°22' W 071°03'0 0.0
2017-Nov-16 07:28N 42°22' W 071°03'0 0.0
2017-Nov-16 06:58N 42°22' W 071°03'0 0.0
2017-Nov-16 06:28N 42°22' W 071°03'0 0.0
2017-Nov-16 05:58N 42°22' W 071°03'0 0.0
2017-Nov-16 05:25N 42°22' W 071°03'0 0.0
2017-Nov-16 04:58N 42°22' W 071°03'0 0.0
2017-Nov-16 04:28N 42°22' W 071°03'0 0.0
2017-Nov-16 03:55N 42°22' W 071°03'0 0.0
2017-Nov-16 03:28N 42°22' W 071°03'0 0.0
2017-Nov-16 02:58N 42°22' W 071°03'0 0.0
2017-Nov-16 02:28N 42°22' W 071°03'0 0.0
2017-Nov-16 01:52N 42°22' W 071°03'0 0.0
2017-Nov-16 01:22N 42°22' W 071°03'0 0.0
2017-Nov-16 00:58N 42°22' W 071°03'0 0.1
2017-Nov-16 00:26N 42°22' W 071°03'0 0.2
2017-Nov-15 23:55N 42°22' W 071°03'4 3.1
2017-Nov-15 22:37N 42°20' W 070°58'1 5.0
2017-Nov-15 22:27N 42°20' W 070°57'3 5.8
2017-Nov-15 21:57N 42°22' W 070°55'2 4.4
2017-Nov-15 21:29N 42°23' W 070°52'2 4.6
2017-Nov-15 20:59N 42°22' W 070°54'3 5.5
2017-Nov-15 20:30N 42°20' W 070°57'4 6.0
2017-Nov-15 19:52N 42°21' W 071°02'1 2.5
2017-Nov-15 19:26N 42°22' W 071°03'0 0.0
2017-Nov-15 18:56N 42°22' W 071°03'0 0.1
2017-Nov-15 18:30N 42°22' W 071°03'1 0.7
2017-Nov-15 16:38N 42°21' W 071°02'1 6.4
2017-Nov-15 16:27N 42°22' W 071°03'0 0.4
2017-Nov-15 16:00N 42°22' W 071°03'0 0.0
2017-Nov-15 15:24N 42°22' W 071°03'0 0.0
2017-Nov-15 14:05N 42°22' W 071°03'0 0.0
2017-Nov-15 13:53N 42°22' W 071°03'0 0.0
2017-Nov-15 13:24N 42°22' W 071°03'0 0.0
2017-Nov-15 12:48N 42°22' W 071°03'0 0.0
2017-Nov-15 12:15N 42°22' W 071°03'0 0.0
2017-Nov-15 11:54N 42°22' W 071°03'0 0.1
2017-Nov-15 11:28N 42°22' W 071°03'0 0.2
2017-Nov-15 11:00N 42°22' W 071°03'0 0.0
2017-Nov-15 06:20N 42°23' W 071°03'0 0.0
2017-Nov-15 05:59N 42°23' W 071°03'0 0.0
2017-Nov-15 05:21N 42°23' W 071°03'0 0.6
2017-Nov-15 04:57N 42°22' W 071°03'2 1.8
2017-Nov-15 03:47N 42°21' W 071°01'0 0.1
2017-Nov-15 02:16N 42°21' W 071°01'1 3.6
2017-Nov-15 01:58N 42°21' W 071°02'1 1.7
2017-Nov-15 01:24N 42°22' W 071°03'0 0.1
2017-Nov-15 01:00N 42°22' W 071°03'0 0.1
2017-Nov-14 21:11N 42°23' W 071°03'0 1.8
2017-Nov-14 21:00N 42°22' W 071°03'0 0.2
2017-Nov-14 20:30N 42°22' W 071°03'0 0.0
2017-Nov-14 19:51N 42°22' W 071°03'0 0.0
2017-Nov-14 19:30N 42°22' W 071°03'1 1.1
2017-Nov-14 18:53N 42°22' W 071°03'12 8.3
2017-Nov-14 17:25N 42°19' W 070°47'4 9.2
2017-Nov-14 17:00N 42°19' W 070°41'102 6.9
2017-Nov-14 02:17N 41°10' W 072°23'310.2
2017-Nov-14 02:00N 41°09' W 072°26'10 0.4
2017-Nov-13 01:13N 41°07' W 072°39'1 5.8
2017-Nov-13 00:58N 41°07' W 072°38'3 5.8
2017-Nov-13 00:27N 41°08' W 072°34'3 6.2
2017-Nov-12 23:57N 41°08' W 072°30'3 6.9
2017-Nov-12 23:30N 41°09' W 072°26'4 7.1
2017-Nov-12 23:00N 41°10' W 072°21'100 4.2
2017-Nov-11 23:30N 42°20' W 070°46'2 3.9
2017-Nov-11 22:54N 42°22' W 070°48'2 3.8
2017-Nov-11 22:30N 42°22' W 070°50'9 4.7
2017-Nov-11 20:36N 42°21' W 071°02'1 5.7
2017-Nov-11 20:26N 42°22' W 071°03'0 0.5
2017-Nov-11 19:31N 42°22' W 071°03'0 0.1
2017-Nov-11 19:09N 42°23' W 071°03'1 6.2
2017-Nov-11 18:59N 42°22' W 071°02'0 0.1
2017-Nov-11 15:34N 42°21' W 071°02'0 0.0
2017-Nov-11 15:16N 42°21' W 071°02'0 0.0
2017-Nov-11 14:55N 42°21' W 071°02'1 2.2
2017-Nov-11 14:29N 42°22' W 071°03'1 1.1
2017-Nov-11 13:53N 42°23' W 071°03'0 0.0
2017-Nov-11 13:20N 42°23' W 071°03'0 0.0
2017-Nov-11 12:33N 42°23' W 071°03'0 0.2
2017-Nov-11 12:29N 42°23' W 071°03'0 0.0
2017-Nov-11 11:38N 42°23' W 071°03'0 0.0
2017-Nov-11 11:17N 42°23' W 071°03'0 1.2
2017-Nov-11 11:00N 42°22' W 071°03'0 0.8
2017-Nov-11 10:28N 42°23' W 071°03'0 0.0
2017-Nov-11 09:46N 42°23' W 071°03'0 0.0
2017-Nov-11 09:22N 42°23' W 071°03'0 0.1
2017-Nov-11 06:09N 42°23' W 071°03'0 0.0
2017-Nov-11 05:51N 42°23' W 071°03'0 0.3
2017-Nov-11 05:18N 42°23' W 071°03'0 0.3
2017-Nov-11 04:59N 42°23' W 071°03'0 0.1
2017-Nov-11 02:06N 42°23' W 071°03'0 0.0
2017-Nov-10 21:29N 42°22' W 071°03'0 0.0
2017-Nov-10 20:53N 42°22' W 071°03'0 0.0
2017-Nov-10 19:57N 42°22' W 071°03'0 0.2
2017-Nov-10 18:15N 42°23' W 071°03'0 0.4
2017-Nov-10 17:09N 42°22' W 071°03'0 0.0
2017-Nov-10 17:00N 42°22' W 071°03'0 0.0
2017-Nov-10 16:30N 42°22' W 071°03'0 0.0
2017-Nov-10 15:57N 42°22' W 071°03'0 0.0
2017-Nov-10 15:30N 42°22' W 071°03'0 0.3
2017-Nov-10 14:59N 42°22' W 071°03'0 0.3
2017-Nov-10 13:51N 42°23' W 071°03'0 0.3
2017-Nov-10 12:59N 42°22' W 071°03'0 0.1
2017-Nov-10 12:08N 42°22' W 071°03'0 0.0
2017-Nov-10 11:59N 42°22' W 071°03'0 0.0
2017-Nov-10 11:26N 42°22' W 071°03'0 0.0
2017-Nov-10 10:50N 42°22' W 071°03'0 0.1
2017-Nov-10 10:21N 42°22' W 071°03'0 0.1
2017-Nov-10 09:53N 42°22' W 071°03'0 0.0
2017-Nov-10 09:27N 42°22' W 071°03'0 0.0
2017-Nov-10 09:00N 42°22' W 071°03'0 0.0
2017-Nov-10 07:59N 42°22' W 071°03'0 0.0
2017-Nov-10 07:27N 42°22' W 071°03'0 0.0
2017-Nov-10 06:53N 42°22' W 071°03'0 0.0
2017-Nov-10 06:30N 42°22' W 071°03'0 0.6
2017-Nov-10 05:58N 42°23' W 071°03'0 0.4
2017-Nov-10 05:28N 42°22' W 071°03'0 0.2
2017-Nov-10 04:42N 42°22' W 071°03'0 0.0
2017-Nov-10 04:21N 42°22' W 071°03'0 0.0
2017-Nov-10 03:54N 42°22' W 071°03'0 0.0
2017-Nov-10 03:27N 42°22' W 071°03'0 0.1
2017-Nov-10 02:50N 42°22' W 071°03'0 0.1
2017-Nov-10 01:03N 42°23' W 071°03'0 0.5
2017-Nov-10 00:45N 42°23' W 071°03'  
Track history (hours):
 
Tides and Currents Weather Stations Pressure Air Temp Water Temp Dewpoint Dewpoint Depression Visibility Wind Speed Wind Dir Waves Ship Positions

Dory

Owner: Greater NY Marine Transportation LLC, SYOSSET, NY. More information available from US FCC via Universal Licensing System and Coast Guard Vessel Documentation Center.

Last reported at 2017-Nov-20 00:30 UTC. Time now 2017-Nov-21 17:43 UTC.
Position N 40°40' W 074°01'.

Length 24 m; draft 2.4 m.

Type: Tug. MMSI: 367605380.

Date/timePositionNaut miles runAvg speedWind from/ knotsBaromVisibWave heightAir tempDewpointWater temp
2017-Nov-20 00:30N 40°40' W 074°01'0 0.0
2017-Nov-20 00:01N 40°40' W 074°01'0 0.0
2017-Nov-19 23:27N 40°40' W 074°01'0 0.0
2017-Nov-19 23:00N 40°40' W 074°01'0 0.0
2017-Nov-19 22:30N 40°40' W 074°01'0 0.0
2017-Nov-19 22:00N 40°40' W 074°01'0 0.0
2017-Nov-19 21:30N 40°40' W 074°01'0 0.0
2017-Nov-19 20:51N 40°40' W 074°01'0 0.0
2017-Nov-19 20:30N 40°40' W 074°01'0 0.0
2017-Nov-19 20:00N 40°40' W 074°01'0 0.0
2017-Nov-19 19:31N 40°40' W 074°01'0 0.0
2017-Nov-19 19:00N 40°40' W 074°01'0 0.0
2017-Nov-19 18:30N 40°40' W 074°01'0 0.0
2017-Nov-19 18:00N 40°40' W 074°01'0 0.0
2017-Nov-19 17:30N 40°40' W 074°01'0 0.0
2017-Nov-19 17:00N 40°40' W 074°01'0 0.0
2017-Nov-19 16:30N 40°40' W 074°01'0 0.0
2017-Nov-19 16:00N 40°40' W 074°01'0 0.0
2017-Nov-19 15:27N 40°40' W 074°01'0 0.0
2017-Nov-19 15:00N 40°40' W 074°01'0 0.0
2017-Nov-19 14:30N 40°40' W 074°01'0 0.0
2017-Nov-19 14:00N 40°40' W 074°01'0 0.0
2017-Nov-19 13:30N 40°40' W 074°01'0 0.0
2017-Nov-19 12:57N 40°40' W 074°01'0 0.0
2017-Nov-19 12:30N 40°40' W 074°01'0 0.0
2017-Nov-19 12:00N 40°40' W 074°01'0 0.0
2017-Nov-19 11:30N 40°40' W 074°01'0 0.0
2017-Nov-19 11:00N 40°40' W 074°01'0 0.0
2017-Nov-19 10:24N 40°40' W 074°01'0 0.0
2017-Nov-19 10:00N 40°40' W 074°01'0 0.0
2017-Nov-19 09:30N 40°40' W 074°01'0 0.0
2017-Nov-19 09:00N 40°40' W 074°01'0 0.0
2017-Nov-19 08:30N 40°40' W 074°01'0 0.0
2017-Nov-19 08:00N 40°40' W 074°01'0 0.0
2017-Nov-19 07:30N 40°40' W 074°01'0 0.0
2017-Nov-19 07:00N 40°40' W 074°01'0 0.0
2017-Nov-19 06:31N 40°40' W 074°01'0 0.0
2017-Nov-19 06:00N 40°40' W 074°01'0 0.0
2017-Nov-19 05:30N 40°40' W 074°01'0 0.0
2017-Nov-19 05:00N 40°40' W 074°01'0 0.0
2017-Nov-19 04:30N 40°40' W 074°01'0 0.0
2017-Nov-19 04:00N 40°40' W 074°01'0 0.0
2017-Nov-19 03:30N 40°40' W 074°01'0 0.0
2017-Nov-19 03:00N 40°40' W 074°01'0 0.0
2017-Nov-19 02:30N 40°40' W 074°01'0 0.0
2017-Nov-19 02:00N 40°40' W 074°01'0 0.0
2017-Nov-19 01:30N 40°40' W 074°01'0 0.0
2017-Nov-19 01:00N 40°40' W 074°01'0 0.0
2017-Nov-19 00:30N 40°40' W 074°01'0 0.0
2017-Nov-19 00:00N 40°40' W 074°01'0 0.0
2017-Nov-18 23:27N 40°40' W 074°01'0 0.0
2017-Nov-18 23:00N 40°40' W 074°01'0 0.0
2017-Nov-18 22:30N 40°40' W 074°01'0 0.0
2017-Nov-18 22:00N 40°40' W 074°01'0 0.0
2017-Nov-18 21:30N 40°40' W 074°01'0 0.0
2017-Nov-18 21:00N 40°40' W 074°01'0 0.0
2017-Nov-18 20:30N 40°40' W 074°01'0 0.0
2017-Nov-18 20:00N 40°40' W 074°01'0 0.0
2017-Nov-18 19:30N 40°40' W 074°01'0 0.0
2017-Nov-18 19:00N 40°40' W 074°01'0 0.0
2017-Nov-18 18:30N 40°40' W 074°01'0 0.0
2017-Nov-18 18:00N 40°40' W 074°01'0 0.0
2017-Nov-18 17:30N 40°40' W 074°01'0 0.0
2017-Nov-18 17:00N 40°40' W 074°01'0 0.0
2017-Nov-18 16:30N 40°40' W 074°01'0 0.0
2017-Nov-18 16:00N 40°40' W 074°01'0 0.0
2017-Nov-18 15:30N 40°40' W 074°01'0 0.0
2017-Nov-18 15:00N 40°40' W 074°01'0 0.7
2017-Nov-18 14:30N 40°40' W 074°01'4 7.3
2017-Nov-18 14:00N 40°43' W 073°58'4 7.1
2017-Nov-18 13:29N 40°47' W 073°56'3 6.3
2017-Nov-18 12:56N 40°48' W 073°52'56 8.4
2017-Nov-18 06:14N 41°10' W 072°44'2 8.1
2017-Nov-18 05:59N 41°11' W 072°41'4 8.0
2017-Nov-18 05:30N 41°12' W 072°36'4 7.8
2017-Nov-18 05:00N 41°12' W 072°31'4 7.9
2017-Nov-18 04:30N 41°13' W 072°26'4 8.1
2017-Nov-18 04:00N 41°14' W 072°20'4 8.7
2017-Nov-18 03:30N 41°15' W 072°15'92 6.8
2017-Nov-17 13:57N 42°18' W 070°44'4 9.1
2017-Nov-17 13:30N 42°19' W 070°50'6 8.2
2017-Nov-17 12:50N 42°20' W 070°57'3 6.9
2017-Nov-17 12:22N 42°21' W 071°01'2 3.3
2017-Nov-17 11:44N 42°23' W 071°03'0 1.1
2017-Nov-17 11:29N 42°22' W 071°03'0 0.0
2017-Nov-17 10:59N 42°22' W 071°03'0 0.0
2017-Nov-17 10:29N 42°22' W 071°03'0 0.0
2017-Nov-17 09:59N 42°22' W 071°03'0 0.0
2017-Nov-17 09:26N 42°22' W 071°03'0 0.0
2017-Nov-17 08:59N 42°22' W 071°03'0 0.0
2017-Nov-17 08:29N 42°22' W 071°03'0 0.0
2017-Nov-17 07:59N 42°22' W 071°03'0 0.0
2017-Nov-17 07:29N 42°22' W 071°03'0 0.0
2017-Nov-17 06:59N 42°22' W 071°03'0 0.0
2017-Nov-17 06:17N 42°22' W 071°03'0 0.0
2017-Nov-17 05:59N 42°22' W 071°03'0 0.0
2017-Nov-17 05:29N 42°22' W 071°03'0 0.0
2017-Nov-17 04:50N 42°22' W 071°03'0 0.0
2017-Nov-17 04:29N 42°22' W 071°03'0 0.0
2017-Nov-17 03:53N 42°22' W 071°03'0 0.0
2017-Nov-17 03:29N 42°22' W 071°03'0 0.0
2017-Nov-17 02:59N 42°22' W 071°03'0 0.0
2017-Nov-17 02:29N 42°22' W 071°03'0 0.0
2017-Nov-17 01:56N 42°22' W 071°03'0 0.0
2017-Nov-17 01:29N 42°22' W 071°03'0 0.0
2017-Nov-17 00:59N 42°22' W 071°03'0 0.0
2017-Nov-17 00:29N 42°22' W 071°03'0 0.0
2017-Nov-16 23:59N 42°22' W 071°03'0 0.0
2017-Nov-16 23:29N 42°22' W 071°03'0 0.0
2017-Nov-16 22:59N 42°22' W 071°03'0 0.0
2017-Nov-16 22:26N 42°22' W 071°03'0 0.0
2017-Nov-16 21:59N 42°22' W 071°03'0 0.0
2017-Nov-16 21:29N 42°22' W 071°03'0 0.0
2017-Nov-16 20:50N 42°22' W 071°03'0 0.0
2017-Nov-16 20:29N 42°22' W 071°03'0 0.0
2017-Nov-16 19:59N 42°22' W 071°03'0 0.0
2017-Nov-16 19:29N 42°22' W 071°03'0 0.0
2017-Nov-16 18:56N 42°22' W 071°03'0 0.0
2017-Nov-16 18:20N 42°22' W 071°03'0 0.0
2017-Nov-16 17:50N 42°22' W 071°03'0 0.0
2017-Nov-16 17:29N 42°22' W 071°03'0 0.0
2017-Nov-16 16:59N 42°22' W 071°03'0 0.0
2017-Nov-16 16:29N 42°22' W 071°03'0 0.0
2017-Nov-16 15:59N 42°22' W 071°03'0 0.0
2017-Nov-16 15:26N 42°22' W 071°03'0 0.0
2017-Nov-16 14:59N 42°22' W 071°03'0 0.0
2017-Nov-16 14:29N 42°22' W 071°03'0 0.0
2017-Nov-16 13:56N 42°22' W 071°03'0 0.0
2017-Nov-16 13:29N 42°22' W 071°03'0 0.0
2017-Nov-16 12:59N 42°22' W 071°03'0 0.0
2017-Nov-16 12:28N 42°22' W 071°03'0 0.0
2017-Nov-16 11:58N 42°22' W 071°03'0 0.0
2017-Nov-16 11:28N 42°22' W 071°03'0 0.0
2017-Nov-16 10:58N 42°22' W 071°03'0 0.0
2017-Nov-16 10:22N 42°22' W 071°03'0 0.0
2017-Nov-16 09:58N 42°22' W 071°03'0 0.0
2017-Nov-16 09:22N 42°22' W 071°03'0 0.0
2017-Nov-16 08:58N 42°22' W 071°03'0 0.0
2017-Nov-16 08:28N 42°22' W 071°03'0 0.0
2017-Nov-16 07:55N 42°22' W 071°03'0 0.0
2017-Nov-16 07:28N 42°22' W 071°03'0 0.0
2017-Nov-16 06:58N 42°22' W 071°03'0 0.0
2017-Nov-16 06:28N 42°22' W 071°03'0 0.0
2017-Nov-16 05:58N 42°22' W 071°03'0 0.0
2017-Nov-16 05:25N 42°22' W 071°03'0 0.0
2017-Nov-16 04:58N 42°22' W 071°03'0 0.0
2017-Nov-16 04:28N 42°22' W 071°03'0 0.0
2017-Nov-16 03:55N 42°22' W 071°03'0 0.0
2017-Nov-16 03:28N 42°22' W 071°03'0 0.0
2017-Nov-16 02:58N 42°22' W 071°03'0 0.0
2017-Nov-16 02:28N 42°22' W 071°03'0 0.0
2017-Nov-16 01:52N 42°22' W 071°03'0 0.0
2017-Nov-16 01:22N 42°22' W 071°03'0 0.0
2017-Nov-16 00:58N 42°22' W 071°03'0 0.1
2017-Nov-16 00:26N 42°22' W 071°03'0 0.2
2017-Nov-15 23:55N 42°22' W 071°03'4 3.1
2017-Nov-15 22:37N 42°20' W 070°58'1 5.0
2017-Nov-15 22:27N 42°20' W 070°57'3 5.8
2017-Nov-15 21:57N 42°22' W 070°55'2 4.4
2017-Nov-15 21:29N 42°23' W 070°52'2 4.6
2017-Nov-15 20:59N 42°22' W 070°54'3 5.5
2017-Nov-15 20:30N 42°20' W 070°57'4 6.0
2017-Nov-15 19:52N 42°21' W 071°02'1 2.5
2017-Nov-15 19:26N 42°22' W 071°03'0 0.0
2017-Nov-15 18:56N 42°22' W 071°03'0 0.1
2017-Nov-15 18:30N 42°22' W 071°03'1 0.7
2017-Nov-15 16:38N 42°21' W 071°02'1 6.4
2017-Nov-15 16:27N 42°22' W 071°03'0 0.4
2017-Nov-15 16:00N 42°22' W 071°03'0 0.0
2017-Nov-15 15:24N 42°22' W 071°03'0 0.0
2017-Nov-15 14:05N 42°22' W 071°03'0 0.0
2017-Nov-15 13:53N 42°22' W 071°03'0 0.0
2017-Nov-15 13:24N 42°22' W 071°03'0 0.0
2017-Nov-15 12:48N 42°22' W 071°03'0 0.0
2017-Nov-15 12:15N 42°22' W 071°03'0 0.0
2017-Nov-15 11:54N 42°22' W 071°03'0 0.1
2017-Nov-15 11:28N 42°22' W 071°03'0 0.2
2017-Nov-15 11:00N 42°22' W 071°03'0 0.0
2017-Nov-15 06:20N 42°23' W 071°03'0 0.0
2017-Nov-15 05:59N 42°23' W 071°03'0 0.0
2017-Nov-15 05:21N 42°23' W 071°03'0 0.6
2017-Nov-15 04:57N 42°22' W 071°03'2 1.8
2017-Nov-15 03:47N 42°21' W 071°01'0 0.1
2017-Nov-15 02:16N 42°21' W 071°01'1 3.6
2017-Nov-15 01:58N 42°21' W 071°02'1 1.7
2017-Nov-15 01:24N 42°22' W 071°03'0 0.1
2017-Nov-15 01:00N 42°22' W 071°03'0 0.1
2017-Nov-14 21:11N 42°23' W 071°03'0 1.8
2017-Nov-14 21:00N 42°22' W 071°03'0 0.2
2017-Nov-14 20:30N 42°22' W 071°03'0 0.0
2017-Nov-14 19:51N 42°22' W 071°03'0 0.0
2017-Nov-14 19:30N 42°22' W 071°03'1 1.1
2017-Nov-14 18:53N 42°22' W 071°03'12 8.3
2017-Nov-14 17:25N 42°19' W 070°47'4 9.2
2017-Nov-14 17:00N 42°19' W 070°41'102 6.9
2017-Nov-14 02:17N 41°10' W 072°23'310.2
2017-Nov-14 02:00N 41°09' W 072°26'10 0.4
2017-Nov-13 01:13N 41°07' W 072°39'1 5.8
2017-Nov-13 00:58N 41°07' W 072°38'3 5.8
2017-Nov-13 00:27N 41°08' W 072°34'3 6.2
2017-Nov-12 23:57N 41°08' W 072°30'3 6.9
2017-Nov-12 23:30N 41°09' W 072°26'4 7.1
2017-Nov-12 23:00N 41°10' W 072°21'100 4.2
2017-Nov-11 23:30N 42°20' W 070°46'2 3.9
2017-Nov-11 22:54N 42°22' W 070°48'2 3.8
2017-Nov-11 22:30N 42°22' W 070°50'9 4.7
2017-Nov-11 20:36N 42°21' W 071°02'1 5.7
2017-Nov-11 20:26N 42°22' W 071°03'0 0.5
2017-Nov-11 19:31N 42°22' W 071°03'0 0.1
2017-Nov-11 19:09N 42°23' W 071°03'1 6.2
2017-Nov-11 18:59N 42°22' W 071°02'0 0.1
2017-Nov-11 15:34N 42°21' W 071°02'0 0.0
2017-Nov-11 15:16N 42°21' W 071°02'0 0.0
2017-Nov-11 14:55N 42°21' W 071°02'1 2.2
2017-Nov-11 14:29N 42°22' W 071°03'1 1.1
2017-Nov-11 13:53N 42°23' W 071°03'0 0.0
2017-Nov-11 13:20N 42°23' W 071°03'0 0.0
2017-Nov-11 12:33N 42°23' W 071°03'0 0.2
2017-Nov-11 12:29N 42°23' W 071°03'0 0.0
2017-Nov-11 11:38N 42°23' W 071°03'0 0.0
2017-Nov-11 11:17N 42°23' W 071°03'0 1.2
2017-Nov-11 11:00N 42°22' W 071°03'0 0.8
2017-Nov-11 10:28N 42°23' W 071°03'0 0.0
2017-Nov-11 09:46N 42°23' W 071°03'0 0.0
2017-Nov-11 09:22N 42°23' W 071°03'0 0.1
2017-Nov-11 06:09N 42°23' W 071°03'0 0.0
2017-Nov-11 05:51N 42°23' W 071°03'0 0.3
2017-Nov-11 05:18N 42°23' W 071°03'0 0.3
2017-Nov-11 04:59N 42°23' W 071°03'0 0.1
2017-Nov-11 02:06N 42°23' W 071°03'0 0.0
2017-Nov-10 21:29N 42°22' W 071°03'0 0.0
2017-Nov-10 20:53N 42°22' W 071°03'0 0.0
2017-Nov-10 19:57N 42°22' W 071°03'0 0.2
2017-Nov-10 18:15N 42°23' W 071°03'0 0.4
2017-Nov-10 17:09N 42°22' W 071°03'0 0.0
2017-Nov-10 17:00N 42°22' W 071°03'0 0.0
2017-Nov-10 16:30N 42°22' W 071°03'0 0.0
2017-Nov-10 15:57N 42°22' W 071°03'0 0.0
2017-Nov-10 15:30N 42°22' W 071°03'0 0.3
2017-Nov-10 14:59N 42°22' W 071°03'0 0.3
2017-Nov-10 13:51N 42°23' W 071°03'0 0.3
2017-Nov-10 12:59N 42°22' W 071°03'0 0.1
2017-Nov-10 12:08N 42°22' W 071°03'0 0.0
2017-Nov-10 11:59N 42°22' W 071°03'0 0.0
2017-Nov-10 11:26N 42°22' W 071°03'0 0.0
2017-Nov-10 10:50N 42°22' W 071°03'0 0.1
2017-Nov-10 10:21N 42°22' W 071°03'0 0.1
2017-Nov-10 09:53N 42°22' W 071°03'0 0.0
2017-Nov-10 09:27N 42°22' W 071°03'0 0.0
2017-Nov-10 09:00N 42°22' W 071°03'0 0.0
2017-Nov-10 07:59N 42°22' W 071°03'0 0.0
2017-Nov-10 07:27N 42°22' W 071°03'0 0.0
2017-Nov-10 06:53N 42°22' W 071°03'0 0.0
2017-Nov-10 06:30N 42°22' W 071°03'0 0.6
2017-Nov-10 05:58N 42°23' W 071°03'0 0.4
2017-Nov-10 05:28N 42°22' W 071°03'0 0.2
2017-Nov-10 04:42N 42°22' W 071°03'0 0.0
2017-Nov-10 04:21N 42°22' W 071°03'0 0.0
2017-Nov-10 03:54N 42°22' W 071°03'0 0.0
2017-Nov-10 03:27N 42°22' W 071°03'0 0.1
2017-Nov-10 02:50N 42°22' W 071°03'0 0.1
2017-Nov-10 01:03N 42°23' W 071°03'0 0.5
2017-Nov-10 00:45N 42°23' W 071°03'  

Dump ship's entire track history